sensor_id;sensor_type;location;lat;lon;timestamp;pressure;altitude;pressure_sealevel;temperature;humidity
77706;BME280;66874;45.274;5.880;2023-11-22T00:01:48;98869.81;;;8.49;69.49
77706;BME280;66874;45.274;5.880;2023-11-22T00:04:13;98863.78;;;8.46;69.36
77706;BME280;66874;45.274;5.880;2023-11-22T00:06:39;98865.56;;;8.42;69.58
77706;BME280;66874;45.274;5.880;2023-11-22T00:09:04;98863.81;;;8.41;69.70
77706;BME280;66874;45.274;5.880;2023-11-22T00:11:29;98871.72;;;8.38;69.74
77706;BME280;66874;45.274;5.880;2023-11-22T00:13:55;98876.94;;;8.38;69.82
77706;BME280;66874;45.274;5.880;2023-11-22T00:16:21;98874.31;;;8.38;69.75
77706;BME280;66874;45.274;5.880;2023-11-22T00:18:46;98881.28;;;8.35;69.73
77706;BME280;66874;45.274;5.880;2023-11-22T00:21:12;98884.75;;;8.33;69.76
77706;BME280;66874;45.274;5.880;2023-11-22T00:23:37;98887.34;;;8.33;69.91
77706;BME280;66874;45.274;5.880;2023-11-22T00:26:03;98885.63;;;8.34;69.77
77706;BME280;66874;45.274;5.880;2023-11-22T00:28:30;98883.03;;;8.34;69.87
77706;BME280;66874;45.274;5.880;2023-11-22T00:30:55;98887.34;;;8.35;69.74
77706;BME280;66874;45.274;5.880;2023-11-22T00:33:21;98887.31;;;8.37;69.81
77706;BME280;66874;45.274;5.880;2023-11-22T00:35:46;98880.38;;;8.36;69.82
77706;BME280;66874;45.274;5.880;2023-11-22T00:38:12;98887.31;;;8.37;69.69
77706;BME280;66874;45.274;5.880;2023-11-22T00:40:37;98882.13;;;8.35;69.88
77706;BME280;66874;45.274;5.880;2023-11-22T00:43:03;98876.06;;;8.35;69.92
77706;BME280;66874;45.274;5.880;2023-11-22T00:45:28;98878.69;;;8.33;69.99
77706;BME280;66874;45.274;5.880;2023-11-22T00:47:54;98872.63;;;8.29;70.13
77706;BME280;66874;45.274;5.880;2023-11-22T00:50:20;98878.75;;;8.28;69.90
77706;BME280;66874;45.274;5.880;2023-11-22T00:52:48;98874.47;;;8.23;70.16
77706;BME280;66874;45.274;5.880;2023-11-22T00:55:14;98882.34;;;8.20;70.23
77706;BME280;66874;45.274;5.880;2023-11-22T00:57:40;98880.63;;;8.19;70.21
77706;BME280;66874;45.274;5.880;2023-11-22T01:00:06;98874.56;;;8.15;70.35
77706;BME280;66874;45.274;5.880;2023-11-22T01:02:35;98878.91;;;8.16;70.15
77706;BME280;66874;45.274;5.880;2023-11-22T01:05:08;98875.44;;;8.16;70.36
77706;BME280;66874;45.274;5.880;2023-11-22T01:07:37;98877.22;;;8.12;70.31
77706;BME280;66874;45.274;5.880;2023-11-22T01:10:03;98875.50;;;8.10;70.22
77706;BME280;66874;45.274;5.880;2023-11-22T01:12:28;98872.97;;;8.05;70.38
77706;BME280;66874;45.274;5.880;2023-11-22T01:14:53;98878.19;;;8.02;70.59
77706;BME280;66874;45.274;5.880;2023-11-22T01:17:19;98886.03;;;8.00;70.58
77706;BME280;66874;45.274;5.880;2023-11-22T01:19:44;98878.19;;;8.02;70.74
77706;BME280;66874;45.274;5.880;2023-11-22T01:22:09;98882.56;;;8.01;70.62
77706;BME280;66874;45.274;5.880;2023-11-22T01:24:35;98886.94;;;7.98;70.69
77706;BME280;66874;45.274;5.880;2023-11-22T01:27:02;98892.16;;;7.95;70.82
77706;BME280;66874;45.274;5.880;2023-11-22T01:29:28;98888.72;;;7.91;71.10
77706;BME280;66874;45.274;5.880;2023-11-22T01:31:54;98894.84;;;7.89;71.10
77706;BME280;66874;45.274;5.880;2023-11-22T01:34:20;98895.69;;;7.91;71.16
77706;BME280;66874;45.274;5.880;2023-11-22T01:36:45;98901.81;;;7.88;71.17
77706;BME280;66874;45.274;5.880;2023-11-22T01:39:11;98907.91;;;7.86;71.40
77706;BME280;66874;45.274;5.880;2023-11-22T01:41:40;98913.16;;;7.82;71.44
77706;BME280;66874;45.274;5.880;2023-11-22T01:44:07;98908.81;;;7.80;71.55
77706;BME280;66874;45.274;5.880;2023-11-22T01:46:33;98914.94;;;7.77;71.79
77706;BME280;66874;45.274;5.880;2023-11-22T01:48:59;98916.69;;;7.75;71.80
77706;BME280;66874;45.274;5.880;2023-11-22T01:51:25;98914.94;;;7.77;71.87
77706;BME280;66874;45.274;5.880;2023-11-22T01:53:53;98910.59;;;7.78;71.85
77706;BME280;66874;45.274;5.880;2023-11-22T01:56:20;98916.63;;;7.81;71.86
77706;BME280;66874;45.274;5.880;2023-11-22T01:58:46;98917.50;;;7.82;71.76
77706;BME280;66874;45.274;5.880;2023-11-22T02:01:12;98903.59;;;7.85;71.85
77706;BME280;66874;45.274;5.880;2023-11-22T02:03:38;98912.22;;;7.88;71.66
77706;BME280;66874;45.274;5.880;2023-11-22T02:06:05;98913.94;;;7.89;71.79
77706;BME280;66874;45.274;5.880;2023-11-22T02:08:30;98909.63;;;7.87;71.77
77706;BME280;66874;45.274;5.880;2023-11-22T02:11:00;98907.06;;;7.85;72.09
77706;BME280;66874;45.274;5.880;2023-11-22T02:13:28;98915.69;;;7.87;72.04
77706;BME280;66874;45.274;5.880;2023-11-22T02:15:54;98910.47;;;7.90;71.91
77706;BME280;66874;45.274;5.880;2023-11-22T02:18:22;98906.97;;;7.93;71.96
77706;BME280;66874;45.274;5.880;2023-11-22T02:20:49;98912.16;;;7.94;71.99
77706;BME280;66874;45.274;5.880;2023-11-22T02:23:14;98916.44;;;7.98;71.90
77706;BME280;66874;45.274;5.880;2023-11-22T02:25:40;98913.81;;;8.01;71.82
77706;BME280;66874;45.274;5.880;2023-11-22T02:28:05;98913.78;;;8.03;71.85
77706;BME280;66874;45.274;5.880;2023-11-22T02:30:30;98911.16;;;8.03;71.86
77706;BME280;66874;45.274;5.880;2023-11-22T02:32:56;98914.63;;;8.05;72.01
77706;BME280;66874;45.274;5.880;2023-11-22T02:35:22;98915.50;;;8.05;71.95
77706;BME280;66874;45.274;5.880;2023-11-22T02:37:47;98920.69;;;8.07;71.95
77706;BME280;66874;45.274;5.880;2023-11-22T02:40:18;98914.59;;;8.08;72.01
77706;BME280;66874;45.274;5.880;2023-11-22T02:42:47;98910.22;;;8.10;71.88
77706;BME280;66874;45.274;5.880;2023-11-22T02:45:14;98914.56;;;8.11;71.97
77706;BME280;66874;45.274;5.880;2023-11-22T02:47:40;98911.94;;;8.13;72.03
77706;BME280;66874;45.274;5.880;2023-11-22T02:50:06;98911.09;;;8.11;72.01
77706;BME280;66874;45.274;5.880;2023-11-22T02:52:32;98910.22;;;8.10;72.14
77706;BME280;66874;45.274;5.880;2023-11-22T02:54:58;98916.28;;;8.11;72.20
77706;BME280;66874;45.274;5.880;2023-11-22T02:57:23;98914.56;;;8.13;72.25
77706;BME280;66874;45.274;5.880;2023-11-22T02:59:49;98911.91;;;8.14;72.07
77706;BME280;66874;45.274;5.880;2023-11-22T03:02:14;98916.19;;;8.18;72.21
77706;BME280;66874;45.274;5.880;2023-11-22T03:04:42;98911.84;;;8.20;72.13
77706;BME280;66874;45.274;5.880;2023-11-22T03:07:07;98917.03;;;8.23;72.06
77706;BME280;66874;45.274;5.880;2023-11-22T03:09:33;98915.28;;;8.22;72.07
77706;BME280;66874;45.274;5.880;2023-11-22T03:11:58;98910.06;;;8.22;72.11
77706;BME280;66874;45.274;5.880;2023-11-22T03:14:24;98916.16;;;8.24;72.16
77706;BME280;66874;45.274;5.880;2023-11-22T03:16:49;98914.44;;;8.23;72.15
77706;BME280;66874;45.274;5.880;2023-11-22T03:19:15;98914.44;;;8.23;72.16
77706;BME280;66874;45.274;5.880;2023-11-22T03:21:41;98912.69;;;8.22;72.09
77706;BME280;66874;45.274;5.880;2023-11-22T03:24:09;98910.97;;;8.23;72.30
77706;BME280;66874;45.274;5.880;2023-11-22T03:26:34;98909.22;;;8.23;72.48
77706;BME280;66874;45.274;5.880;2023-11-22T03:29:00;98909.22;;;8.22;72.53
77706;BME280;66874;45.274;5.880;2023-11-22T03:31:26;98905.75;;;8.23;72.48
77706;BME280;66874;45.274;5.880;2023-11-22T03:33:52;98909.19;;;8.25;72.46
77706;BME280;66874;45.274;5.880;2023-11-22T03:36:17;98911.78;;;8.26;72.32
77706;BME280;66874;45.274;5.880;2023-11-22T03:38:43;98914.41;;;8.26;71.93
77706;BME280;66874;45.274;5.880;2023-11-22T03:41:09;98905.72;;;8.24;72.29
77706;BME280;66874;45.274;5.880;2023-11-22T03:43:34;98908.31;;;8.24;72.32
77706;BME280;66874;45.274;5.880;2023-11-22T03:45:59;98909.22;;;8.23;72.34
77706;BME280;66874;45.274;5.880;2023-11-22T03:48:24;98903.19;;;8.20;72.45
77706;BME280;66874;45.274;5.880;2023-11-22T03:50:51;98909.28;;;8.19;72.48
77706;BME280;66874;45.274;5.880;2023-11-22T03:53:16;98916.19;;;8.18;72.53
77706;BME280;66874;45.274;5.880;2023-11-22T03:55:42;98905.81;;;8.17;72.69
77706;BME280;66874;45.274;5.880;2023-11-22T03:58:07;98910.16;;;8.16;72.64
77706;BME280;66874;45.274;5.880;2023-11-22T04:00:33;98903.25;;;8.15;72.78
77706;BME280;66874;45.274;5.880;2023-11-22T04:02:58;98910.16;;;8.16;72.72
77706;BME280;66874;45.274;5.880;2023-11-22T04:05:26;98916.25;;;8.17;72.69
77706;BME280;66874;45.274;5.880;2023-11-22T04:07:52;98911.06;;;8.15;72.77
77706;BME280;66874;45.274;5.880;2023-11-22T04:10:17;98919.72;;;8.14;72.81
77706;BME280;66874;45.274;5.880;2023-11-22T04:12:44;98918.00;;;8.13;73.06
77706;BME280;66874;45.274;5.880;2023-11-22T04:15:11;98918.91;;;8.12;72.87
77706;BME280;66874;45.274;5.880;2023-11-22T04:17:36;98925.84;;;8.13;72.95
77706;BME280;66874;45.274;5.880;2023-11-22T04:20:05;98924.13;;;8.12;72.93
77706;BME280;66874;45.274;5.880;2023-11-22T04:22:34;98920.66;;;8.12;72.98
77706;BME280;66874;45.274;5.880;2023-11-22T04:24:59;98931.06;;;8.10;73.20
77706;BME280;66874;45.274;5.880;2023-11-22T04:27:26;98931.06;;;8.10;73.17
77706;BME280;66874;45.274;5.880;2023-11-22T04:29:51;98938.88;;;8.10;73.07
77706;BME280;66874;45.274;5.880;2023-11-22T04:32:16;98926.75;;;8.09;73.43
77706;BME280;66874;45.274;5.880;2023-11-22T04:34:42;98944.09;;;8.10;73.41
77706;BME280;66874;45.274;5.880;2023-11-22T04:37:07;98931.94;;;8.11;73.35
77706;BME280;66874;45.274;5.880;2023-11-22T04:39:33;98937.13;;;8.11;73.31
77706;BME280;66874;45.274;5.880;2023-11-22T04:41:58;98941.50;;;8.10;73.38
77706;BME280;66874;45.274;5.880;2023-11-22T04:44:23;98944.94;;;8.11;73.41
77706;BME280;66874;45.274;5.880;2023-11-22T04:46:49;98944.09;;;8.10;73.49
77706;BME280;66874;45.274;5.880;2023-11-22T04:49:14;98943.25;;;8.10;73.47
77706;BME280;66874;45.274;5.880;2023-11-22T04:51:40;98944.13;;;8.08;73.46
77706;BME280;66874;45.274;5.880;2023-11-22T04:54:05;98946.69;;;8.10;73.45
77706;BME280;66874;45.274;5.880;2023-11-22T04:56:30;98947.56;;;8.11;73.39
77706;BME280;66874;45.274;5.880;2023-11-22T04:58:56;98957.13;;;8.10;73.41
77706;BME280;66874;45.274;5.880;2023-11-22T05:01:22;98961.47;;;8.11;73.51
77706;BME280;66874;45.274;5.880;2023-11-22T05:03:47;98959.72;;;8.10;73.74
77706;BME280;66874;45.274;5.880;2023-11-22T05:06:12;98948.44;;;8.10;73.63
77706;BME280;66874;45.274;5.880;2023-11-22T05:08:38;98958.00;;;8.09;73.53
77706;BME280;66874;45.274;5.880;2023-11-22T05:11:03;98951.09;;;8.08;73.70
77706;BME280;66874;45.274;5.880;2023-11-22T05:13:29;98943.28;;;8.08;73.53
77706;BME280;66874;45.274;5.880;2023-11-22T05:15:55;98949.34;;;8.08;73.50
77706;BME280;66874;45.274;5.880;2023-11-22T05:18:20;98950.19;;;8.09;73.29
77706;BME280;66874;45.274;5.880;2023-11-22T05:20:46;98957.09;;;8.13;73.41
77706;BME280;66874;45.274;5.880;2023-11-22T05:23:14;98957.06;;;8.15;73.19
77706;BME280;66874;45.274;5.880;2023-11-22T05:25:39;98958.81;;;8.16;73.09
77706;BME280;66874;45.274;5.880;2023-11-22T05:28:04;98963.13;;;8.17;72.96
77706;BME280;66874;45.274;5.880;2023-11-22T05:30:30;98959.66;;;8.18;72.91
77706;BME280;66874;45.274;5.880;2023-11-22T05:32:56;98969.22;;;8.19;72.65
77706;BME280;66874;45.274;5.880;2023-11-22T05:35:22;98977.88;;;8.19;72.52
77706;BME280;66874;45.274;5.880;2023-11-22T05:37:47;98982.22;;;8.20;72.65
77706;BME280;66874;45.274;5.880;2023-11-22T05:40:13;98977.84;;;8.21;72.71
77706;BME280;66874;45.274;5.880;2023-11-22T05:42:39;98984.81;;;8.20;72.89
77706;BME280;66874;45.274;5.880;2023-11-22T05:45:05;98991.75;;;8.23;72.60
77706;BME280;66874;45.274;5.880;2023-11-22T05:47:31;98998.69;;;8.22;72.32
77706;BME280;66874;45.274;5.880;2023-11-22T05:49:56;98996.06;;;8.22;72.41
77706;BME280;66874;45.274;5.880;2023-11-22T05:52:22;98993.47;;;8.24;72.31
77706;BME280;66874;45.274;5.880;2023-11-22T05:54:48;99002.09;;;8.26;72.35
77706;BME280;66874;45.274;5.880;2023-11-22T05:57:14;98999.53;;;8.24;72.06
77706;BME280;66874;45.274;5.880;2023-11-22T05:59:40;99014.28;;;8.25;72.08
77706;BME280;66874;45.274;5.880;2023-11-22T06:02:05;99001.28;;;8.24;72.30
77706;BME280;66874;45.274;5.880;2023-11-22T06:04:31;98999.53;;;8.24;72.34
77706;BME280;66874;45.274;5.880;2023-11-22T06:06:56;99010.81;;;8.25;72.07
77706;BME280;66874;45.274;5.880;2023-11-22T06:09:22;99012.53;;;8.27;71.87
77706;BME280;66874;45.274;5.880;2023-11-22T06:11:48;99022.03;;;8.30;71.70
77706;BME280;66874;45.274;5.880;2023-11-22T06:14:14;99015.97;;;8.29;71.65
77706;BME280;66874;45.274;5.880;2023-11-22T06:16:39;99008.16;;;8.29;71.85
77706;BME280;66874;45.274;5.880;2023-11-22T06:19:04;99022.94;;;8.29;71.81
77706;BME280;66874;45.274;5.880;2023-11-22T06:21:30;99021.22;;;8.28;71.70
77706;BME280;66874;45.274;5.880;2023-11-22T06:23:55;99028.19;;;8.27;71.79
77706;BME280;66874;45.274;5.880;2023-11-22T06:26:23;99036.00;;;8.26;71.72
77706;BME280;66874;45.274;5.880;2023-11-22T06:28:49;99041.25;;;8.23;71.66
77706;BME280;66874;45.274;5.880;2023-11-22T06:31:15;99044.72;;;8.22;71.83
77706;BME280;66874;45.274;5.880;2023-11-22T06:33:40;99049.09;;;8.18;72.00
77706;BME280;66874;45.274;5.880;2023-11-22T06:36:06;99048.25;;;8.15;72.06
77706;BME280;66874;45.274;5.880;2023-11-22T06:38:32;99050.03;;;8.13;71.99
77706;BME280;66874;45.274;5.880;2023-11-22T06:40:57;99051.81;;;8.09;72.10
77706;BME280;66874;45.274;5.880;2023-11-22T06:43:23;99053.53;;;8.10;72.16
77706;BME280;66874;45.274;5.880;2023-11-22T06:45:48;99057.88;;;8.11;72.15
77706;BME280;66874;45.274;5.880;2023-11-22T06:48:14;99050.91;;;8.10;72.06
77706;BME280;66874;45.274;5.880;2023-11-22T06:50:39;99062.19;;;8.15;71.94
77706;BME280;66874;45.274;5.880;2023-11-22T06:53:05;99056.06;;;8.18;72.11
77706;BME280;66874;45.274;5.880;2023-11-22T06:55:31;99050.00;;;8.19;72.07
77706;BME280;66874;45.274;5.880;2023-11-22T06:57:58;99057.81;;;8.19;71.85
77706;BME280;66874;45.274;5.880;2023-11-22T07:00:24;99055.19;;;8.17;72.23
77706;BME280;66874;45.274;5.880;2023-11-22T07:02:49;99052.63;;;8.16;72.02
77706;BME280;66874;45.274;5.880;2023-11-22T07:05:14;99061.31;;;8.13;71.93
77706;BME280;66874;45.274;5.880;2023-11-22T07:07:40;99064.81;;;8.11;71.84
77706;BME280;66874;45.274;5.880;2023-11-22T07:10:06;99064.81;;;8.11;71.72
77706;BME280;66874;45.274;5.880;2023-11-22T07:12:32;99076.09;;;8.13;71.63
77706;BME280;66874;45.274;5.880;2023-11-22T07:14:59;99080.41;;;8.15;71.64
77706;BME280;66874;45.274;5.880;2023-11-22T07:17:25;99074.31;;;8.15;71.73
77706;BME280;66874;45.274;5.880;2023-11-22T07:19:53;99081.25;;;8.17;71.46
77706;BME280;66874;45.274;5.880;2023-11-22T07:22:18;99072.56;;;8.18;71.54
77706;BME280;66874;45.274;5.880;2023-11-22T07:24:49;99069.06;;;8.21;71.41
77706;BME280;66874;45.274;5.880;2023-11-22T07:27:19;99070.78;;;8.23;71.36
77706;BME280;66874;45.274;5.880;2023-11-22T07:29:45;99069.88;;;8.26;71.27
77706;BME280;66874;45.274;5.880;2023-11-22T07:32:11;99061.13;;;8.30;71.01
77706;BME280;66874;45.274;5.880;2023-11-22T07:34:39;99065.44;;;8.36;70.66
77706;BME280;66874;45.274;5.880;2023-11-22T07:37:05;99083.69;;;8.39;70.64
77706;BME280;66874;45.274;5.880;2023-11-22T07:39:34;99088.00;;;8.41;70.55
77706;BME280;66874;45.274;5.880;2023-11-22T07:42:01;99087.13;;;8.42;70.52
77706;BME280;66874;45.274;5.880;2023-11-22T07:44:26;99092.31;;;8.44;70.58
77706;BME280;66874;45.274;5.880;2023-11-22T07:46:52;99098.38;;;8.47;70.55
77706;BME280;66874;45.274;5.880;2023-11-22T07:49:19;99095.75;;;8.49;70.58
77706;BME280;66874;45.274;5.880;2023-11-22T07:51:46;99101.81;;;8.51;70.56
77706;BME280;66874;45.274;5.880;2023-11-22T07:54:12;99106.16;;;8.53;70.46
77706;BME280;66874;45.274;5.880;2023-11-22T07:56:41;99100.03;;;8.54;70.34
77706;BME280;66874;45.274;5.880;2023-11-22T07:59:08;99100.88;;;8.56;70.35
77706;BME280;66874;45.274;5.880;2023-11-22T08:01:33;99101.75;;;8.59;70.16
77706;BME280;66874;45.274;5.880;2023-11-22T08:03:59;99113.03;;;8.59;70.09
77706;BME280;66874;45.274;5.880;2023-11-22T08:06:24;99108.66;;;8.61;69.99
77706;BME280;66874;45.274;5.880;2023-11-22T08:08:51;99108.63;;;8.66;69.79
77706;BME280;66874;45.274;5.880;2023-11-22T08:11:18;99108.56;;;8.70;69.79
77706;BME280;66874;45.274;5.880;2023-11-22T08:13:44;99111.13;;;8.76;69.61
77706;BME280;66874;45.274;5.880;2023-11-22T08:16:13;99119.75;;;8.80;69.61
77706;BME280;66874;45.274;5.880;2023-11-22T08:18:41;99113.63;;;8.84;69.53
77706;BME280;66874;45.274;5.880;2023-11-22T08:21:08;99110.97;;;8.87;69.30
77706;BME280;66874;45.274;5.880;2023-11-22T08:23:34;99112.66;;;8.91;69.27
77706;BME280;66874;45.274;5.880;2023-11-22T08:25:59;99116.09;;;8.95;69.10
77706;BME280;66874;45.274;5.880;2023-11-22T08:28:25;99111.75;;;8.97;69.19
77706;BME280;66874;45.274;5.880;2023-11-22T08:30:51;99118.69;;;8.98;68.86
77706;BME280;66874;45.274;5.880;2023-11-22T08:33:16;99116.06;;;8.98;68.93
77706;BME280;66874;45.274;5.880;2023-11-22T08:35:42;99120.41;;;9.00;68.89
77706;BME280;66874;45.274;5.880;2023-11-22T08:38:08;99123.81;;;9.05;69.04
77706;BME280;66874;45.274;5.880;2023-11-22T08:40:35;99120.28;;;9.10;68.86
77706;BME280;66874;45.274;5.880;2023-11-22T08:43:03;99121.97;;;9.14;68.80
77706;BME280;66874;45.274;5.880;2023-11-22T08:45:29;99116.69;;;9.18;68.84
77706;BME280;66874;45.274;5.880;2023-11-22T08:47:54;99117.53;;;9.20;68.64
77706;BME280;66874;45.274;5.880;2023-11-22T08:50:20;99127.94;;;9.23;68.44
77706;BME280;66874;45.274;5.880;2023-11-22T08:52:46;99137.50;;;9.24;68.66
77706;BME280;66874;45.274;5.880;2023-11-22T08:55:12;99127.91;;;9.25;68.50
77706;BME280;66874;45.274;5.880;2023-11-22T08:57:39;99123.59;;;9.22;68.12
77706;BME280;66874;45.274;5.880;2023-11-22T09:00:06;99120.13;;;9.22;68.16
77706;BME280;66874;45.274;5.880;2023-11-22T09:02:35;99129.69;;;9.21;68.20
77706;BME280;66874;45.274;5.880;2023-11-22T09:05:04;99128.81;;;9.24;68.22
77706;BME280;66874;45.274;5.880;2023-11-22T09:07:33;99131.38;;;9.27;68.13
77706;BME280;66874;45.274;5.880;2023-11-22T09:09:59;99133.78;;;9.42;67.92
77706;BME280;66874;45.274;5.880;2023-11-22T09:12:25;99139.34;;;9.81;67.54
77706;BME280;66874;45.274;5.880;2023-11-22T09:14:52;99134.81;;;9.92;66.87
77706;BME280;66874;45.274;5.880;2023-11-22T09:17:18;99132.13;;;9.95;66.89
77706;BME280;66874;45.274;5.880;2023-11-22T09:19:43;99126.34;;;10.32;66.46
77706;BME280;66874;45.274;5.880;2023-11-22T09:22:09;99125.78;;;10.63;66.16
77706;BME280;66874;45.274;5.880;2023-11-22T09:24:36;99123.41;;;10.97;65.47
77706;BME280;66874;45.274;5.880;2023-11-22T09:27:02;99135.13;;;11.21;64.97
77706;BME280;66874;45.274;5.880;2023-11-22T09:29:30;99132.66;;;11.55;64.73
77706;BME280;66874;45.274;5.880;2023-11-22T09:31:55;99135.72;;;11.74;64.03
77706;BME280;66874;45.274;5.880;2023-11-22T09:34:21;99131.44;;;11.70;63.84
77706;BME280;66874;45.274;5.880;2023-11-22T09:36:47;99133.91;;;11.78;63.17
77706;BME280;66874;45.274;5.880;2023-11-22T09:39:12;99132.38;;;12.06;63.17
77706;BME280;66874;45.274;5.880;2023-11-22T09:41:38;99124.66;;;12.36;62.33
77706;BME280;66874;45.274;5.880;2023-11-22T09:44:04;99122.50;;;12.52;61.67
77706;BME280;66874;45.274;5.880;2023-11-22T09:46:30;99131.81;;;12.63;60.38
77706;BME280;66874;45.274;5.880;2023-11-22T09:49:00;99117.56;;;12.74;60.48
77706;BME280;66874;45.274;5.880;2023-11-22T09:51:29;99113.59;;;12.90;59.61
77706;BME280;66874;45.274;5.880;2023-11-22T09:54:03;99117.13;;;12.89;59.07
77706;BME280;66874;45.274;5.880;2023-11-22T09:56:34;99112.22;;;13.08;59.02
77706;BME280;66874;45.274;5.880;2023-11-22T09:59:03;99104.50;;;13.33;58.17
77706;BME280;66874;45.274;5.880;2023-11-22T10:01:29;99102.66;;;13.36;58.02
77706;BME280;66874;45.274;5.880;2023-11-22T10:04:01;99104.72;;;13.27;56.54
77706;BME280;66874;45.274;5.880;2023-11-22T10:06:27;99098.81;;;13.17;57.11
77706;BME280;66874;45.274;5.880;2023-11-22T10:08:58;99088.75;;;13.33;56.61
77706;BME280;66874;45.274;5.880;2023-11-22T10:11:24;99097.41;;;13.36;56.27
77706;BME280;66874;45.274;5.880;2023-11-22T10:13:50;99106.03;;;13.41;56.38
77706;BME280;66874;45.274;5.880;2023-11-22T10:16:16;99089.03;;;13.53;56.07
77706;BME280;66874;45.274;5.880;2023-11-22T10:18:43;99087.09;;;13.58;56.18
77706;BME280;66874;45.274;5.880;2023-11-22T10:21:22;99086.19;;;13.59;55.29
77706;BME280;66874;45.274;5.880;2023-11-22T10:23:49;99100.78;;;13.70;55.51
77706;BME280;66874;45.274;5.880;2023-11-22T10:26:17;99089.28;;;14.00;55.54
77706;BME280;66874;45.274;5.880;2023-11-22T10:28:42;99097.44;;;14.19;55.09
77706;BME280;66874;45.274;5.880;2023-11-22T10:31:12;99092.06;;;14.22;54.64
77706;BME280;66874;45.274;5.880;2023-11-22T10:33:41;99094.31;;;14.33;54.09
77706;BME280;66874;45.274;5.880;2023-11-22T10:36:07;99087.78;;;14.45;54.19
77706;BME280;66874;45.274;5.880;2023-11-22T10:38:33;99093.84;;;14.73;53.99
77706;BME280;66874;45.274;5.880;2023-11-22T10:40:59;99084.25;;;14.96;53.25
77706;BME280;66874;45.274;5.880;2023-11-22T10:43:27;99086.91;;;14.94;52.33
77706;BME280;66874;45.274;5.880;2023-11-22T10:45:58;99084.94;;;15.01;52.72
77706;BME280;66874;45.274;5.880;2023-11-22T10:48:24;99094.50;;;15.27;52.65
77706;BME280;66874;45.274;5.880;2023-11-22T10:50:52;99080.38;;;15.51;52.34
77706;BME280;66874;45.274;5.880;2023-11-22T10:53:31;99086.75;;;15.69;51.74
77706;BME280;66874;45.274;5.880;2023-11-22T10:56:04;99076.56;;;15.82;50.77
77706;BME280;66874;45.274;5.880;2023-11-22T10:58:32;99075.59;;;15.84;50.10
77706;BME280;66874;45.274;5.880;2023-11-22T11:00:59;99075.78;;;15.80;50.49
77706;BME280;66874;45.274;5.880;2023-11-22T11:03:28;99067.72;;;15.83;49.72
77706;BME280;66874;45.274;5.880;2023-11-22T11:05:59;99062.63;;;16.00;49.61
77706;BME280;66874;45.274;5.880;2023-11-22T11:08:30;99058.50;;;16.15;49.34
77706;BME280;66874;45.274;5.880;2023-11-22T11:10:56;99057.25;;;16.24;48.41
77706;BME280;66874;45.274;5.880;2023-11-22T11:13:23;99053.53;;;16.28;48.43
77706;BME280;66874;45.274;5.880;2023-11-22T11:15:49;99059.22;;;16.39;47.77
77706;BME280;66874;45.274;5.880;2023-11-22T11:18:17;99067.59;;;16.28;47.71
77706;BME280;66874;45.274;5.880;2023-11-22T11:20:51;99064.09;;;16.48;48.18
77706;BME280;66874;45.274;5.880;2023-11-22T11:23:23;99055.19;;;16.92;48.12
77706;BME280;66874;45.274;5.880;2023-11-22T11:25:51;99053.81;;;17.02;47.49
77706;BME280;66874;45.274;5.880;2023-11-22T11:28:17;99049.94;;;17.11;47.54
77706;BME280;66874;45.274;5.880;2023-11-22T11:30:44;99058.41;;;17.17;47.11
77706;BME280;66874;45.274;5.880;2023-11-22T11:33:12;99072.34;;;17.40;46.97
77706;BME280;66874;45.274;5.880;2023-11-22T11:35:58;99067.81;;;17.79;46.77
77706;BME280;66874;45.274;5.880;2023-11-22T11:38:32;99065.94;;;18.00;46.20
77706;BME280;66874;45.274;5.880;2023-11-22T11:41:08;99047.88;;;18.09;46.17
77706;BME280;66874;45.274;5.880;2023-11-22T11:46:10;99058.66;;;19.40;44.42
77706;BME280;66874;45.274;5.880;2023-11-22T11:48:35;99049.28;;;20.12;42.85
77706;BME280;66874;45.274;5.880;2023-11-22T11:51:01;99041.94;;;20.90;41.03
77706;BME280;66874;45.274;5.880;2023-11-22T11:53:26;99034.72;;;21.35;40.50
77706;BME280;66874;45.274;5.880;2023-11-22T11:55:53;99032.09;;;21.89;39.56
77706;BME280;66874;45.274;5.880;2023-11-22T11:58:20;99032.56;;;22.35;38.50
77706;BME280;66874;45.274;5.880;2023-11-22T12:00:48;99031.09;;;22.70;39.34
77706;BME280;66874;45.274;5.880;2023-11-22T12:03:15;99031.00;;;22.84;37.85
77706;BME280;66874;45.274;5.880;2023-11-22T12:05:46;99041.56;;;22.85;37.76
77706;BME280;66874;45.274;5.880;2023-11-22T12:08:12;99047.75;;;22.73;36.54
77706;BME280;66874;45.274;5.880;2023-11-22T12:10:43;99043.47;;;22.45;37.15
77706;BME280;66874;45.274;5.880;2023-11-22T12:13:13;99032.88;;;22.43;36.34
77706;BME280;66874;45.274;5.880;2023-11-22T12:15:39;99046.34;;;22.55;35.98
77706;BME280;66874;45.274;5.880;2023-11-22T12:18:05;99047.31;;;22.54;35.20
77706;BME280;66874;45.274;5.880;2023-11-22T12:20:30;99050.53;;;22.97;35.26
77706;BME280;66874;45.274;5.880;2023-11-22T12:22:59;99053.06;;;23.24;34.55
77706;BME280;66874;45.274;5.880;2023-11-22T12:25:28;99044.63;;;22.41;34.75
77706;BME280;66874;45.274;5.880;2023-11-22T12:27:54;99050.09;;;21.85;36.06
77706;BME280;66874;45.274;5.880;2023-11-22T12:30:35;99057.03;;;21.32;36.51
77706;BME280;66874;45.274;5.880;2023-11-22T12:33:03;99062.84;;;21.25;37.30
77706;BME280;66874;45.274;5.880;2023-11-22T12:35:30;99063.97;;;20.78;37.39
77706;BME280;66874;45.274;5.880;2023-11-22T12:37:56;99072.88;;;20.32;38.08
77706;BME280;66874;45.274;5.880;2023-11-22T12:40:21;99079.09;;;20.77;38.32
77706;BME280;66874;45.274;5.880;2023-11-22T12:42:48;99073.53;;;21.66;37.18
77706;BME280;66874;45.274;5.880;2023-11-22T12:45:21;99069.22;;;22.05;36.19
77706;BME280;66874;45.274;5.880;2023-11-22T12:47:49;99078.47;;;21.72;35.90
77706;BME280;66874;45.274;5.880;2023-11-22T12:50:34;99055.97;;;22.17;35.99
77706;BME280;66874;45.274;5.880;2023-11-22T12:53:11;99058.06;;;22.90;34.92
77706;BME280;66874;45.274;5.880;2023-11-22T12:55:44;99055.50;;;23.27;34.34
77706;BME280;66874;45.274;5.880;2023-11-22T12:58:10;99060.84;;;22.63;34.21
77706;BME280;66874;45.274;5.880;2023-11-22T13:00:37;99055.81;;;21.79;35.43
77706;BME280;66874;45.274;5.880;2023-11-22T13:03:10;99058.56;;;21.22;35.76
77706;BME280;66874;45.274;5.880;2023-11-22T13:05:36;99051.59;;;21.89;35.70
77706;BME280;66874;45.274;5.880;2023-11-22T13:08:02;99050.94;;;22.53;34.87